This is the latest recevied weather packets stored in our database for station/object VE2JJ-13. If no packets are shown the sender has not sent any weather packets the latest 10 day(s).
| Time | Temp. | Humidity | Pressure | Rain* | Wind** | Luminosity | Snow |
|---|---|---|---|---|---|---|---|
| 1777291891 | 14.44° C | 59% | 1018 hPa | 0 mm | - | - | - |
| 1777291590 | 13.89° C | 60% | 1018 hPa | 0 mm | - | - | - |
| 1777291292 | 13.89° C | 61% | 1017.9 hPa | 0 mm | - | - | - |
| 1777290990 | 13.33° C | 65% | 1017.9 hPa | 0 mm | - | - | - |
| 1777290669 | 12.78° C | 65% | 1017.6 hPa | 0 mm | - | - | - |
| 1777290360 | 12.22° C | 65% | 1017.6 hPa | 0 mm | - | - | - |
| 1777290034 | 12.22° C | 65% | 1017.6 hPa | 0 mm | - | - | - |
| 1777289701 | 11.67° C | 66% | 1017.5 hPa | 0 mm | - | - | - |
| 1777289400 | 11.67° C | 67% | 1017.5 hPa | 0 mm | - | - | - |
| 1777289072 | 11.67° C | 66% | 1017.4 hPa | 0 mm | - | - | - |
| 1777288742 | 11.11° C | 68% | 1017.4 hPa | 0 mm | - | - | - |
| 1777288444 | 10.56° C | 70% | 1017.4 hPa | 0 mm | - | - | - |
| 1777288111 | 10.56° C | 71% | 1017.4 hPa | 0 mm | - | - | - |
| 1777287810 | 10° C | 73% | 1017.3 hPa | 0 mm | - | - | - |
| 1777287511 | 8.89° C | 75% | 1017.3 hPa | 0 mm | - | - | - |
| 1777287179 | 7.78° C | 78% | 1017.3 hPa | 0 mm | - | - | - |
| 1777286880 | 8.33° C | 77% | 1017.3 hPa | 0 mm | - | - | - |
| 1777286553 | 7.78° C | 77% | 1017.3 hPa | 0 mm | - | - | - |
| 1777286220 | 7.22° C | 78% | 1017.3 hPa | 0 mm | - | - | - |
| 1777285920 | 6.67° C | 80% | 1017.3 hPa | 0 mm | - | - | - |
| 1777285591 | 6.11° C | 82% | 1017.2 hPa | 0 mm | - | - | - |
| 1777285290 | 5.56° C | 82% | 1017.2 hPa | 0 mm | - | - | - |
| 1777284960 | 5.56° C | 82% | 1017.1 hPa | 0 mm | - | - | - |
| 1777284632 | 5.56° C | 82% | 1017.1 hPa | 0 mm | - | - | - |
| 1777284330 | 5.56° C | 82% | 1017.1 hPa | 0 mm | - | - | - |
* Rain latest hour (hover to see other rain measurements)
** Current wind speed in m/s (hover to see current wind gust speed)